Time;durP1;ratioP1;P1;durP2;ratioP2;P2;SDS_P1;SDS_P2;PMS_P1;PMS_P2;Temp;Humidity;BMP_temperature;BMP_pressure;BME280_temperature;BME280_humidity;BME280_pressure;Samples;Min_cycle;Max_cycle;Signal;HPM_P1;HPM_P2
2022/10/02 00:02:32;;;;;;;12.85;2.00;;;;;;;-143.48;83.75;78609.09;5073720;28;20028;-33
2022/10/02 00:05:09;;;;;;;11.27;2.38;;;;;;;-143.48;84.16;78615.06;5073834;28;20048;-34
2022/10/02 00:07:42;;;;;;;8.63;2.10;;;;;;;-143.48;84.53;78607.13;5073761;28;20115;-34
2022/10/02 00:10:17;;;;;;;12.50;2.10;;;;;;;-143.48;84.67;78607.13;5055590;28;20024;-34
2022/10/02 00:12:45;;;;;;;9.38;1.77;;;;;;;-143.48;85.13;78617.03;5073683;28;20020;-34
2022/10/02 00:15:21;;;;;;;9.70;1.70;;;;;;;-143.48;85.67;78623.00;5073459;28;20085;-34
2022/10/02 00:17:52;;;;;;;11.00;1.70;;;;;;;-143.48;85.66;78648.78;5055415;28;20481;-34
2022/10/02 00:20:21;;;;;;;10.95;2.03;;;;;;;-143.48;85.64;78642.81;5073593;28;20115;-34
2022/10/02 00:22:52;;;;;;;9.20;2.10;;;;;;;-143.48;85.67;78656.72;5073556;28;20520;-34
2022/10/02 00:25:42;;;;;;;13.18;2.17;;;;;;;-143.48;85.37;78642.81;5073290;28;20060;-35
2022/10/02 00:28:36;;;;;;;7.82;2.20;;;;;;;-143.48;84.69;78644.81;5073906;28;20020;-34
2022/10/02 00:31:34;;;;;;;16.15;2.78;;;;;;;-143.48;84.78;78654.72;5060411;28;20090;-34
2022/10/02 00:34:05;;;;;;;9.48;3.30;;;;;;;-143.48;84.45;78662.66;5077976;28;20091;-34
2022/10/02 00:36:53;;;;;;;12.15;2.70;;;;;;;-143.48;84.44;78662.66;5077659;28;20033;-34
2022/10/02 00:39:49;;;;;;;9.80;2.20;;;;;;;-143.48;84.53;78650.75;5077543;28;20035;-34
2022/10/02 00:42:32;;;;;;;6.85;2.17;;;;;;;-143.48;84.63;78646.78;5077187;28;20032;-34
2022/10/02 00:45:36;;;;;;;10.25;2.20;;;;;;;-143.48;84.84;78644.81;5077758;28;20032;-34
2022/10/02 00:48:45;;;;;;;11.88;2.13;;;;;;;-143.48;85.22;78646.78;5077171;28;20035;-35
2022/10/02 00:51:21;;;;;;;9.27;2.00;;;;;;;-143.48;85.87;78642.81;5077266;28;20425;-35
2022/10/02 00:54:11;;;;;;;12.95;2.38;;;;;;;-143.48;85.65;78632.91;5077253;28;20382;-34
2022/10/02 00:56:45;;;;;;;11.60;2.50;;;;;;;-143.48;85.31;78624.97;5077320;28;20105;-34
2022/10/02 00:59:14;;;;;;;13.20;2.50;;;;;;;-143.48;85.59;78621.00;5077579;28;20072;-35
2022/10/02 01:01:48;;;;;;;15.40;2.80;;;;;;;-143.48;85.56;78617.03;5076762;28;20024;-34
2022/10/02 01:04:19;;;;;;;12.48;2.30;;;;;;;-143.48;85.24;78619.03;5077104;28;20075;-34
2022/10/02 01:06:44;;;;;;;12.07;2.20;;;;;;;-143.48;84.87;78621.00;5077386;28;20040;-34
2022/10/02 01:09:10;;;;;;;18.88;2.40;;;;;;;-143.48;84.88;78619.03;5076791;28;20356;-34
2022/10/02 01:11:37;;;;;;;11.10;2.42;;;;;;;-143.48;85.05;78613.06;5077285;28;20078;-37
2022/10/02 01:14:03;;;;;;;11.65;2.30;;;;;;;-143.48;84.87;78615.06;5076896;28;20459;-34
2022/10/02 01:16:30;;;;;;;13.75;2.33;;;;;;;-143.48;84.77;78617.03;5058787;28;20031;-34
2022/10/02 01:18:55;;;;;;;15.80;2.20;;;;;;;-143.48;85.18;78619.03;5076815;28;20494;-35
2022/10/02 01:21:31;;;;;;;14.15;2.97;;;;;;;-143.48;85.12;78623.00;5076731;28;20017;-34
2022/10/02 01:24:05;;;;;;;18.30;2.67;;;;;;;-143.48;85.76;78623.00;5076671;28;20024;-34
2022/10/02 01:26:30;;;;;;;10.70;2.63;;;;;;;-143.48;85.56;78632.91;5076753;28;20059;-37
2022/10/02 01:28:55;;;;;;;17.85;2.67;;;;;;;-143.48;85.77;78636.88;5076390;28;20052;-34
2022/10/02 01:31:23;;;;;;;13.32;2.33;;;;;;;-143.48;85.75;78644.81;5076961;28;20367;-34
2022/10/02 01:33:49;;;;;;;20.30;2.85;;;;;;;-143.48;85.95;78644.81;5076407;28;20410;-35
2022/10/02 01:36:15;;;;;;;15.00;2.65;;;;;;;-143.48;86.17;78666.63;5076210;28;20035;-34
2022/10/02 01:38:42;;;;;;;12.60;2.53;;;;;;;-143.48;86.51;78678.53;5076255;28;20024;-34
2022/10/02 01:41:11;;;;;;;12.90;2.20;;;;;;;-143.48;86.91;78694.41;5075344;28;20024;-34
2022/10/02 01:43:47;;;;;;;19.08;2.72;;;;;;;-143.48;87.60;78702.31;5076123;28;20467;-34
2022/10/02 01:46:34;;;;;;;11.35;2.40;;;;;;;-143.48;87.80;78690.44;5076261;28;20028;-35
2022/10/02 01:49:21;;;;;;;21.02;3.30;;;;;;;-143.48;88.17;78688.44;5076368;28;20033;-34
2022/10/02 01:52:05;;;;;;;15.18;3.17;;;;;;;-143.48;87.89;78696.38;5076216;28;20027;-34
2022/10/02 01:54:45;;;;;;;15.77;2.35;;;;;;;-143.48;87.65;78696.38;5057956;28;20025;-34
2022/10/02 01:57:28;;;;;;;15.25;2.60;;;;;;;-143.48;87.76;78702.31;5075704;28;20044;-33
2022/10/02 02:00:08;;;;;;;10.95;2.40;;;;;;;-143.48;87.85;78718.19;5076642;28;20020;-34
2022/10/02 02:02:41;;;;;;;15.60;2.35;;;;;;;-143.48;88.18;78718.19;5076023;28;20024;-35
2022/10/02 02:05:19;;;;;;;15.65;3.08;;;;;;;-143.48;88.33;78718.19;5075754;28;20063;-34
2022/10/02 02:07:57;;;;;;;20.02;2.80;;;;;;;-143.48;88.36;78720.19;5076304;28;20048;-33
2022/10/02 02:10:38;;;;;;;18.67;2.78;;;;;;;-143.48;88.69;78716.22;5075900;28;20493;-34
2022/10/02 02:13:03;;;;;;;19.73;2.60;;;;;;;-143.48;88.49;78716.22;5076010;28;20017;-33
2022/10/02 02:15:37;;;;;;;17.35;2.70;;;;;;;-143.48;88.85;78708.28;5076121;28;20482;-34
2022/10/02 02:18:42;;;;;;;13.52;2.75;;;;;;;-143.48;88.86;78722.16;5075491;28;20080;-35
2022/10/02 02:21:49;;;;;;;20.00;3.35;;;;;;;-143.48;88.61;78714.22;5027558;28;20036;-35
2022/10/02 02:24:48;;;;;;;18.58;3.00;;;;;;;-143.48;89.03;78718.19;5064813;28;20041;-34
2022/10/02 02:27:18;;;;;;;25.13;2.92;;;;;;;-143.48;89.47;78722.16;5059884;28;20040;-34
2022/10/02 02:29:48;;;;;;;15.93;2.97;;;;;;;-143.48;89.65;78710.25;5075829;28;20020;-34
2022/10/02 02:32:17;;;;;;;15.63;2.58;;;;;;;-143.48;89.74;78710.25;5075530;28;20021;-34
2022/10/02 02:34:49;;;;;;;18.15;3.20;;;;;;;-143.48;89.60;78710.25;5075454;28;20028;-34
2022/10/02 02:37:19;;;;;;;20.50;3.30;;;;;;;-143.48;89.49;78702.31;5057214;28;20036;-35
2022/10/02 02:39:51;;;;;;;14.10;2.80;;;;;;;-143.48;89.28;78704.31;5075278;28;20391;-34
2022/10/02 02:42:21;;;;;;;21.33;3.05;;;;;;;-143.48;89.29;78706.28;5074979;28;20020;-35
2022/10/02 02:44:52;;;;;;;18.90;3.30;;;;;;;-143.48;89.23;78710.25;5075890;28;20123;-34
2022/10/02 02:47:32;;;;;;;21.40;3.78;;;;;;;-143.48;89.81;78704.31;5074973;28;20050;-34
2022/10/02 02:50:07;;;;;;;17.48;2.65;;;;;;;-143.48;89.57;78716.22;5074946;28;20027;-34
2022/10/02 02:52:37;;;;;;;16.77;2.92;;;;;;;-143.48;89.78;78706.28;5074959;28;20402;-35
2022/10/02 02:55:21;;;;;;;11.13;2.47;;;;;;;-143.48;89.27;78710.25;5074697;28;20020;-33
2022/10/02 02:57:53;;;;;;;15.70;2.70;;;;;;;-143.48;89.35;78710.25;5075253;28;20131;-33
2022/10/02 03:00:20;;;;;;;18.52;2.97;;;;;;;-143.48;89.56;78718.19;5075019;28;20035;-36
2022/10/02 03:02:46;;;;;;;24.02;2.90;;;;;;;-143.48;89.54;78712.25;5056989;28;20021;-35
2022/10/02 03:05:16;;;;;;;21.85;3.00;;;;;;;-143.48;89.65;78710.25;5074899;28;20024;-35
2022/10/02 03:07:58;;;;;;;14.95;3.10;;;;;;;-143.48;89.55;78710.25;5074518;28;20107;-35
2022/10/02 03:11:04;;;;;;;14.70;2.83;;;;;;;-143.48;89.78;78704.31;5074510;28;20039;-35
2022/10/02 03:14:04;;;;;;;25.52;3.50;;;;;;;-143.48;89.30;78702.31;5074456;28;20027;-33
2022/10/02 03:16:44;;;;;;;17.35;2.90;;;;;;;-143.48;89.39;78708.28;5074338;28;20023;-33
2022/10/02 03:19:09;;;;;;;21.58;3.15;;;;;;;-143.48;89.60;78702.31;5074848;28;20051;-34
2022/10/02 03:21:40;;;;;;;22.15;3.25;;;;;;;-143.48;89.39;78698.38;5074478;28;20020;-33
2022/10/02 03:24:20;;;;;;;19.90;3.22;;;;;;;-143.48;89.35;78706.28;5074165;28;20085;-34
2022/10/02 03:27:00;;;;;;;15.32;2.45;;;;;;;-143.48;89.21;78706.28;5074033;28;20029;-34
2022/10/02 03:29:33;;;;;;;14.68;3.00;;;;;;;-143.48;89.63;78702.31;5074701;28;20024;-34
2022/10/02 03:31:59;;;;;;;27.13;3.78;;;;;;;-143.48;89.51;78698.38;5074634;28;20465;-34
2022/10/02 03:34:26;;;;;;;15.27;3.22;;;;;;;-143.48;89.50;78698.38;5074222;28;20028;-33
2022/10/02 03:36:51;;;;;;;20.85;3.47;;;;;;;-143.48;89.70;78704.31;5074483;28;20025;-33
2022/10/02 03:39:17;;;;;;;18.30;3.13;;;;;;;-143.48;89.50;78714.22;5072762;28;20013;-35
2022/10/02 03:41:42;;;;;;;20.15;3.15;;;;;;;-143.48;89.49;78730.09;5074147;28;20031;-33
2022/10/02 03:44:07;;;;;;;22.83;3.20;;;;;;;-143.48;90.12;78720.19;5073878;28;20410;-34
2022/10/02 03:46:33;;;;;;;14.32;2.97;;;;;;;-143.48;89.51;78728.13;5074672;28;20025;-34
2022/10/02 03:48:58;;;;;;;15.82;3.10;;;;;;;-143.48;90.30;78734.06;5074005;28;20526;-34
2022/10/02 03:51:23;;;;;;;19.30;3.03;;;;;;;-143.48;90.17;78738.03;5073724;28;20056;-35
2022/10/02 03:53:49;;;;;;;20.05;2.90;;;;;;;-143.48;90.22;78749.94;5073818;28;20020;-34
2022/10/02 03:56:17;;;;;;;16.58;2.70;;;;;;;-143.48;90.23;78749.94;5073600;28;20471;-35
2022/10/02 03:58:47;;;;;;;22.27;3.10;;;;;;;-143.48;90.54;78742.00;5073570;28;20070;-33
2022/10/02 04:01:21;;;;;;;20.15;2.72;;;;;;;-143.48;90.21;78757.88;5055749;28;20039;-34
2022/10/02 04:04:06;;;;;;;15.85;3.00;;;;;;;-143.48;90.63;78747.94;5073174;28;20054;-34
2022/10/02 04:06:45;;;;;;;24.80;3.08;;;;;;;-143.48;90.61;78742.00;5056036;28;20028;-34
2022/10/02 04:09:34;;;;;;;13.75;2.95;;;;;;;-143.48;90.48;78745.97;5073763;28;20021;-34
2022/10/02 04:12:10;;;;;;;21.67;3.15;;;;;;;-143.48;90.66;78749.94;5073801;28;20046;-34
2022/10/02 04:14:49;;;;;;;21.15;3.03;;;;;;;-143.48;90.92;78745.97;5073485;28;20074;-34
2022/10/02 04:17:30;;;;;;;26.85;2.97;;;;;;;-143.48;90.65;78730.09;5073502;28;20025;-34
2022/10/02 04:20:02;;;;;;;23.55;3.35;;;;;;;-143.48;90.16;78734.06;5073912;28;20021;-33
2022/10/02 04:22:34;;;;;;;19.85;3.00;;;;;;;-143.48;90.43;78726.13;5073568;28;20378;-34
2022/10/02 04:25:14;;;;;;;26.97;3.17;;;;;;;-143.48;89.78;78753.91;5055442;28;20055;-34
2022/10/02 04:27:58;;;;;;;14.50;2.95;;;;;;;-143.48;90.22;78773.72;5073682;28;20030;-34
2022/10/02 04:30:24;;;;;;;21.80;3.20;;;;;;;-143.48;90.63;78755.88;5073686;28;20433;-34
2022/10/02 04:32:49;;;;;;;20.33;2.97;;;;;;;-143.48;90.91;78742.00;5073592;28;20024;-35
2022/10/02 04:35:38;;;;;;;13.15;2.65;;;;;;;-143.48;90.87;78738.03;5073830;28;20087;-34
2022/10/02 04:38:21;;;;;;;15.35;3.00;;;;;;;-143.48;90.76;78734.06;5073901;28;20027;-34
2022/10/02 04:41:20;;;;;;;21.88;3.05;;;;;;;-143.48;90.56;78738.03;5073573;28;20036;-34
2022/10/02 04:44:17;;;;;;;22.75;3.53;;;;;;;-143.48;90.58;78743.97;5073434;28;20033;-33
2022/10/02 04:47:01;;;;;;;19.52;3.50;;;;;;;-143.48;90.74;78740.00;5074262;28;20060;-34
2022/10/02 04:49:39;;;;;;;22.05;2.80;;;;;;;-143.48;90.87;78734.06;5073413;28;20058;-34
2022/10/02 04:52:35;;;;;;;15.18;2.55;;;;;;;-143.48;90.68;78745.97;5073444;28;20470;-34
2022/10/02 04:55:22;;;;;;;18.10;2.85;;;;;;;-143.48;90.77;78740.00;5073279;28;20032;-34
2022/10/02 04:58:36;;;;;;;16.95;2.67;;;;;;;-143.48;90.69;78732.09;5073003;28;20040;-34
2022/10/02 05:01:13;;;;;;;19.92;3.20;;;;;;;-143.48;90.43;78732.09;4991948;28;20457;-34
2022/10/02 05:03:54;;;;;;;23.13;3.08;;;;;;;-143.48;90.35;78730.09;5070059;28;20033;-34
2022/10/02 05:06:48;;;;;;;19.23;3.10;;;;;;;-143.48;90.16;78734.06;5073000;28;20056;-34
2022/10/02 05:09:25;;;;;;;17.15;2.83;;;;;;;-143.48;90.27;78742.00;5073050;28;20067;-33
2022/10/02 05:12:02;;;;;;;17.98;2.92;;;;;;;-143.48;90.73;78742.00;5073261;28;20029;-33
2022/10/02 05:14:35;;;;;;;19.67;2.83;;;;;;;-143.48;90.84;78745.97;5074097;28;20058;-34
2022/10/02 05:17:21;;;;;;;12.60;2.80;;;;;;;-143.48;90.56;78749.94;5076903;28;20024;-35
2022/10/02 05:20:08;;;;;;;21.38;3.88;;;;;;;-143.48;90.43;78742.00;5076607;28;20267;-34
2022/10/02 05:22:44;;;;;;;20.25;3.85;;;;;;;-143.48;89.93;78755.88;5076831;28;20078;-34
2022/10/02 05:25:37;;;;;;;17.13;3.58;;;;;;;-143.48;89.60;78767.78;5077039;28;20043;-33
2022/10/02 05:28:15;;;;;;;17.73;3.70;;;;;;;-143.48;89.93;78777.69;5076754;28;20062;-33
2022/10/02 05:31:19;;;;;;;13.60;2.75;;;;;;;-143.48;89.91;78765.78;5077031;28;20021;-34
2022/10/02 05:34:06;;;;;;;17.98;2.75;;;;;;;-143.48;89.38;78765.78;5072518;28;20077;-34
2022/10/02 05:37:03;;;;;;;12.15;2.25;;;;;;;-143.48;88.97;78757.88;5076641;28;20036;-34
2022/10/02 05:39:42;;;;;;;22.17;2.67;;;;;;;-143.48;89.29;78769.75;5076514;28;20032;-34
2022/10/02 05:42:26;;;;;;;16.65;3.10;;;;;;;-143.48;89.42;78759.84;5076399;28;20020;-34
2022/10/02 05:44:59;;;;;;;18.13;3.10;;;;;;;-143.48;89.32;78757.88;5076704;28;20107;-34
2022/10/02 05:47:29;;;;;;;15.82;2.88;;;;;;;-143.48;89.31;78749.94;5076701;28;20028;-34
2022/10/02 05:50:00;;;;;;;14.60;2.47;;;;;;;-143.48;89.72;78749.94;5076287;28;20093;-34
2022/10/02 05:52:40;;;;;;;20.00;3.05;;;;;;;-143.48;89.61;78742.00;5076614;28;20063;-32
2022/10/02 05:55:19;;;;;;;21.20;2.95;;;;;;;-143.48;89.35;78742.00;5076477;28;20025;-33
2022/10/02 05:57:50;;;;;;;18.98;3.33;;;;;;;-143.48;88.86;78740.00;5075976;28;20060;-33
2022/10/02 06:00:29;;;;;;;15.82;2.83;;;;;;;-143.48;88.58;78743.97;5076031;28;20059;-34
2022/10/02 06:03:13;;;;;;;16.25;3.10;;;;;;;-143.48;88.27;78732.09;5075903;28;20056;-35
2022/10/02 06:06:01;;;;;;;11.93;2.30;;;;;;;-143.48;87.70;78743.97;5076259;28;20021;-34
2022/10/02 06:08:34;;;;;;;19.23;3.03;;;;;;;-143.48;87.56;78742.00;5076319;28;20052;-34
2022/10/02 06:11:06;;;;;;;;;;;;;;;-143.48;87.46;78755.88;5076333;28;20028;-34
2022/10/02 06:13:42;;;;;;;12.23;2.75;;;;;;;-143.48;87.71;78757.88;5075912;28;19908;-33
2022/10/02 06:16:29;;;;;;;11.38;2.40;;;;;;;-143.48;87.81;78761.84;5075880;28;20352;-34
2022/10/02 06:19:06;;;;;;;20.15;2.85;;;;;;;-143.48;87.65;78759.84;5075806;28;20024;-34
2022/10/02 06:22:14;;;;;;;17.67;2.83;;;;;;;-143.48;87.77;78765.78;5075655;28;20025;-34
2022/10/02 06:24:54;;;;;;;23.05;2.92;;;;;;;-143.48;87.99;78755.88;5075684;28;20074;-34
2022/10/02 06:27:50;;;;;;;18.40;2.83;;;;;;;-143.48;87.17;78753.91;5074801;28;20028;-34
2022/10/02 06:30:17;;;;;;;15.90;2.67;;;;;;;-143.48;87.24;78761.84;5075535;28;20021;-34
2022/10/02 06:32:51;;;;;;;15.63;2.75;;;;;;;-143.48;87.58;78753.91;5075775;28;20025;-34
2022/10/02 06:35:29;;;;;;;18.58;2.55;;;;;;;-143.48;87.05;78753.91;5057392;28;20028;-37
2022/10/02 06:38:22;;;;;;;11.68;3.03;;;;;;;-143.48;87.25;78745.97;5075224;28;20052;-34
2022/10/02 06:41:06;;;;;;;12.25;2.30;;;;;;;-143.48;87.06;78738.03;5075116;28;20467;-34
2022/10/02 06:44:16;;;;;;;19.73;2.92;;;;;;;-143.48;86.58;78745.97;5057831;28;20028;-35
2022/10/02 06:47:03;;;;;;;19.05;2.60;;;;;;;-143.48;86.68;78740.00;5056310;28;20135;-34
2022/10/02 06:49:55;;;;;;;9.93;2.50;;;;;;;-143.48;86.00;78738.03;5074932;28;20025;-34
2022/10/02 06:52:58;;;;;;;21.48;3.00;;;;;;;-143.48;86.26;78732.09;5072957;28;20036;-34
2022/10/02 06:55:41;;;;;;;17.98;2.78;;;;;;;-143.48;85.50;78716.22;5069074;28;20032;-34
2022/10/02 06:58:24;;;;;;;14.87;2.47;;;;;;;-143.48;85.46;78726.13;5074586;28;20076;-34
2022/10/02 07:00:57;;;;;;;23.90;2.80;;;;;;;-143.48;85.21;78702.31;5075245;28;20271;-34
2022/10/02 07:03:39;;;;;;;14.52;2.42;;;;;;;-143.48;84.48;78704.31;5056562;28;20024;-34
2022/10/02 07:06:32;;;;;;;15.10;2.70;;;;;;;-143.48;84.00;78692.41;5074478;28;20111;-35
2022/10/02 07:09:15;;;;;;;15.43;2.47;;;;;;;-143.48;84.18;78692.41;5053075;28;20033;-34
2022/10/02 07:11:49;;;;;;;;;;;;;;;-143.48;83.58;78668.59;5074680;28;20032;-32
2022/10/02 07:14:48;;;;;;;15.18;3.15;;;;;;;-143.48;83.23;78662.66;5074401;28;19916;-34
2022/10/02 07:17:21;;;;;;;18.60;2.50;;;;;;;-143.48;83.06;78666.63;5074596;28;20090;-33
2022/10/02 07:20:22;;;;;;;18.83;3.00;;;;;;;-143.48;82.02;78644.81;5074821;28;20429;-34
2022/10/02 07:22:59;;;;;;;12.32;2.83;;;;;;;-143.48;81.91;78638.84;5072067;28;20479;-33
2022/10/02 07:25:53;;;;;;;19.42;3.10;;;;;;;-143.48;80.74;78621.00;5072300;28;20110;-34
2022/10/02 07:28:32;;;;;;;23.52;3.00;;;;;;;-143.48;81.68;78624.97;5071929;28;20029;-34
2022/10/02 07:31:10;;;;;;;23.45;2.80;;;;;;;-143.48;81.25;78632.91;5072052;28;20154;-34
2022/10/02 07:33:59;;;;;;;16.75;3.08;;;;;;;-143.48;80.98;78628.94;5073468;28;20024;-34
2022/10/02 07:36:33;;;;;;;15.45;2.53;;;;;;;-143.48;80.95;78611.09;5056123;28;20036;-34
2022/10/02 07:39:02;;;;;;;11.95;2.78;;;;;;;-143.48;80.42;78599.19;5055232;28;20111;-35
2022/10/02 07:41:43;;;;;;;19.42;3.05;;;;;;;-143.48;78.99;78563.50;5073921;28;20108;-34
2022/10/02 07:44:24;;;;;;;14.80;2.70;;;;;;;-143.48;77.68;78563.50;5073903;28;20035;-34
2022/10/02 07:46:53;;;;;;;15.93;2.78;;;;;;;-143.48;77.04;78521.84;5073985;28;20052;-34
2022/10/02 07:49:41;;;;;;;18.58;3.17;;;;;;;-143.48;76.56;78498.03;5074003;28;20416;-34
2022/10/02 07:52:22;;;;;;;18.95;2.92;;;;;;;-143.48;75.04;78488.13;5074047;28;20028;-34
2022/10/02 07:55:02;;;;;;;16.50;2.40;;;;;;;-143.48;75.70;78511.94;5073761;28;20062;-34
2022/10/02 07:58:04;;;;;;;14.25;2.47;;;;;;;-143.48;76.88;78529.78;5073375;28;20083;-34
2022/10/02 08:00:36;;;;;;;16.67;2.58;;;;;;;-143.48;77.12;78521.84;5072468;28;20102;-35
2022/10/02 08:03:08;;;;;;;18.58;2.67;;;;;;;-143.48;75.43;78462.34;5072547;28;20025;-34
2022/10/02 08:05:40;;;;;;;13.80;2.70;;;;;;;-143.48;72.73;78392.94;5071228;28;20020;-34
2022/10/02 08:08:24;;;;;;;18.95;2.95;;;;;;;-143.48;70.42;78388.97;5073877;28;20079;-34
2022/10/02 08:10:57;;;;;;;16.98;2.70;;;;;;;-143.48;69.33;78418.72;5073768;28;20146;-33
2022/10/02 08:13:34;;;;;;;19.30;2.65;;;;;;;-143.48;69.78;78392.94;5073494;28;20029;-34
2022/10/02 08:16:03;;;;;;;12.80;2.45;;;;;;;-143.48;68.28;78309.63;5073144;28;20029;-35
2022/10/02 08:18:36;;;;;;;16.02;2.20;;;;;;;-143.48;67.97;78307.66;5072480;28;20025;-33
2022/10/02 08:21:09;;;;;;;13.75;2.47;;;;;;;-143.48;66.48;78297.75;5072311;28;20024;-34
2022/10/02 08:23:38;;;;;;;;;;;;;;;-143.48;65.07;78248.16;5073304;28;20466;-34
2022/10/02 08:26:16;;;;;;;15.82;2.90;;;;;;;-143.48;62.17;78186.69;5073097;28;20041;-34
2022/10/02 08:29:04;;;;;;;15.05;2.75;;;;;;;-143.48;61.80;78164.88;5073134;28;20081;-34
2022/10/02 08:31:30;;;;;;;12.27;2.72;;;;;;;-143.48;58.53;77956.66;5073534;28;20021;-33
2022/10/02 08:33:56;;;;;;;15.30;2.78;;;;;;;-143.48;54.28;77849.56;5073318;28;20029;-34
2022/10/02 08:36:39;;;;;;;11.85;2.60;;;;;;;-143.48;53.94;77903.09;5073781;28;20466;-34
2022/10/02 08:39:29;;;;;;;13.98;2.60;;;;;;;-143.48;53.15;77920.94;5073283;28;20043;-34
2022/10/02 08:42:17;;;;;;;10.05;2.70;;;;;;;-143.48;55.54;77986.41;5073493;28;20535;-34
2022/10/02 08:45:28;;;;;;;18.15;3.42;;;;;;;-143.48;59.04;78151.00;5073166;28;20479;-34
2022/10/02 08:48:25;;;;;;;13.52;2.88;;;;;;;-143.48;61.66;78194.63;5057239;28;20475;-34
2022/10/02 08:51:29;;;;;;;17.00;2.75;;;;;;;-143.48;60.92;78214.44;5076458;28;20435;-35
2022/10/02 08:54:31;;;;;;;13.20;2.58;;;;;;;-143.48;63.79;78250.16;5077287;28;20020;-34
2022/10/02 08:57:27;;;;;;;13.70;2.90;;;;;;;-143.48;57.73;78073.66;5077138;28;20063;-34
2022/10/02 09:00:13;;;;;;;13.23;2.72;;;;;;;-143.48;60.55;78180.72;5077601;28;20025;-35
2022/10/02 09:03:25;;;;;;;13.63;2.80;;;;;;;-143.48;64.58;78264.03;5077191;28;20479;-34
2022/10/02 09:06:12;;;;;;;17.20;3.00;;;;;;;-143.48;58.09;78055.81;5076886;28;20467;-34
2022/10/02 09:08:57;;;;;;;16.65;2.83;;;;;;;-143.48;58.61;78101.41;5076739;28;20029;-34
2022/10/02 09:11:50;;;;;;;17.20;2.83;;;;;;;-143.48;59.54;78127.19;5077054;28;20028;-34
2022/10/02 09:14:51;;;;;;;;;;;;;;;-143.48;58.93;78097.44;5077414;28;20020;-32
2022/10/02 09:17:43;;;;;;;17.92;3.10;;;;;;;-143.48;57.11;78047.88;4995475;28;19910;-34
2022/10/02 09:20:35;;;;;;;14.27;2.92;;;;;;;-143.48;53.98;77934.84;5074166;28;20044;-34
2022/10/02 09:23:22;;;;;;;18.48;3.10;;;;;;;-143.48;54.47;77942.78;5076808;28;20074;-34
2022/10/02 09:26:02;;;;;;;16.95;2.60;;;;;;;-143.48;52.09;77915.00;5076735;28;20390;-34
2022/10/02 09:28:49;;;;;;;17.38;3.03;;;;;;;-143.48;53.47;77909.06;5076656;28;20047;-35
2022/10/02 09:31:33;;;;;;;13.25;3.03;;;;;;;-143.48;50.63;77790.06;5076687;28;20424;-34
2022/10/02 09:34:29;;;;;;;14.77;2.90;;;;;;;-143.48;49.05;77734.56;5076633;28;20481;-34
2022/10/02 09:37:27;;;;;;;12.13;2.50;;;;;;;-143.48;45.56;77641.38;5076474;28;20043;-34
2022/10/02 09:40:01;;;;;;;11.55;2.83;;;;;;;-143.48;48.19;77702.84;5076208;28;20029;-33
2022/10/02 09:42:38;;;;;;;12.32;2.72;;;;;;;-143.48;47.67;77631.44;5076079;28;20024;-34
2022/10/02 09:45:27;;;;;;;17.08;2.83;;;;;;;-143.48;46.64;77702.84;5076389;28;20025;-34
2022/10/02 09:47:52;;;;;;;15.15;2.70;;;;;;;-143.48;50.64;77843.63;5076310;28;20024;-34
2022/10/02 09:50:36;;;;;;;12.32;2.63;;;;;;;-143.48;46.38;77784.13;5076232;28;20028;-35
2022/10/02 09:53:14;;;;;;;14.10;2.83;;;;;;;-143.48;49.91;77809.91;5076233;28;20151;-34
2022/10/02 09:56:03;;;;;;;12.82;2.65;;;;;;;-143.48;50.58;77865.44;5076497;28;20074;-34
2022/10/02 09:58:37;;;;;;;15.98;2.53;;;;;;;-143.48;53.38;78055.81;5075855;28;20437;-34
2022/10/02 10:01:26;;;;;;;15.10;2.63;;;;;;;-143.48;55.30;78071.66;5075182;28;20032;-34
2022/10/02 10:04:19;;;;;;;15.30;2.70;;;;;;;-143.48;53.25;78039.94;5075729;28;20055;-33
2022/10/02 10:07:18;;;;;;;10.20;2.17;;;;;;;-143.48;55.08;78154.94;5076061;28;20028;-33
2022/10/02 10:09:54;;;;;;;21.67;2.88;;;;;;;-143.48;57.19;78200.56;5076187;28;20105;-34
2022/10/02 10:12:42;;;;;;;15.80;2.33;;;;;;;-143.48;60.52;78250.16;5076109;28;20025;-34
2022/10/02 10:15:39;;;;;;;18.30;3.15;;;;;;;-143.48;59.04;78313.59;5075912;28;20021;-34
2022/10/02 10:18:35;;;;;;;21.40;2.83;;;;;;;-143.48;62.91;78410.78;5075521;28;20052;-35
2022/10/02 10:21:38;;;;;;;15.88;2.90;;;;;;;-143.48;67.13;78500.03;5075868;28;20490;-34
2022/10/02 10:24:24;;;;;;;15.30;2.65;;;;;;;-143.48;68.96;78537.72;5075417;28;20028;-34
2022/10/02 10:27:08;;;;;;;15.93;2.63;;;;;;;-143.48;71.12;78595.22;5075642;28;20471;-34
2022/10/02 10:29:38;;;;;;;;;;;;;;;-143.48;73.14;78587.28;5076042;28;20463;-34
2022/10/02 10:32:34;;;;;;;11.07;2.55;;;;;;;-143.48;70.66;78581.34;5075612;28;20259;-35
2022/10/02 10:35:36;;;;;;;14.27;2.38;;;;;;;-143.48;71.22;78581.34;5075018;28;20017;-33
2022/10/02 10:38:33;;;;;;;14.30;2.38;;;;;;;-143.48;72.43;78571.44;5075351;28;20035;-34
2022/10/02 10:41:18;;;;;;;11.07;2.30;;;;;;;-143.48;73.22;78547.63;5075336;28;20020;-34
2022/10/02 10:43:58;;;;;;;14.70;2.35;;;;;;;-143.48;72.27;78543.66;5075846;28;20485;-35
2022/10/02 10:46:54;;;;;;;14.50;2.60;;;;;;;-143.48;72.85;78527.78;5075214;28;20021;-35
2022/10/02 10:49:25;;;;;;;20.58;2.85;;;;;;;-143.48;73.51;78527.78;5075738;28;20028;-35
2022/10/02 10:52:02;;;;;;;18.00;2.80;;;;;;;-143.48;72.99;78519.88;5075183;28;20491;-35
2022/10/02 10:54:30;;;;;;;15.00;3.08;;;;;;;-143.48;72.90;78525.81;5056912;28;20028;-35
2022/10/02 10:57:33;;;;;;;13.05;2.60;;;;;;;-143.48;70.81;78498.03;5074274;28;20048;-35
2022/10/02 11:00:19;;;;;;;14.70;2.90;;;;;;;-143.48;69.09;78450.44;5074992;28;20020;-35
2022/10/02 11:03:17;;;;;;;13.00;2.50;;;;;;;-143.48;67.18;78400.88;5074558;28;20042;-34
2022/10/02 11:06:01;;;;;;;13.75;2.70;;;;;;;-143.48;65.73;78410.78;5074862;28;20028;-33
2022/10/02 11:08:57;;;;;;;15.85;2.40;;;;;;;-143.48;65.10;78369.13;5056487;28;20050;-34
2022/10/02 11:11:38;;;;;;;17.33;2.90;;;;;;;-143.48;62.29;78244.19;5074413;28;20394;-34
2022/10/02 11:14:37;;;;;;;17.27;2.85;;;;;;;-143.48;60.50;78275.94;5073695;28;20023;-33
2022/10/02 11:17:17;;;;;;;15.88;2.75;;;;;;;-143.48;60.05;78145.03;5073737;28;20029;-34
2022/10/02 11:20:00;;;;;;;16.70;2.72;;;;;;;-143.48;56.84;78129.16;5073644;28;20401;-35
2022/10/02 11:22:50;;;;;;;13.18;2.45;;;;;;;-143.48;55.52;78107.34;5073825;28;20395;-34
2022/10/02 11:25:21;;;;;;;12.90;3.08;;;;;;;-143.48;54.93;78047.88;5073823;28;20386;-35
2022/10/02 11:28:11;;;;;;;13.70;2.45;;;;;;;-143.48;53.40;78028.03;5074172;28;20066;-34
2022/10/02 11:31:10;;;;;;;14.07;2.70;;;;;;;-143.48;52.80;77972.50;5074553;28;20056;-35
2022/10/02 11:33:41;;;;;;;11.38;2.40;;;;;;;-143.48;52.84;78053.81;5074108;28;20103;-35
2022/10/02 11:36:23;;;;;;;11.85;2.13;;;;;;;-143.48;55.21;78174.78;5074307;28;20024;-34
2022/10/02 11:39:09;;;;;;;12.55;1.92;;;;;;;-143.48;55.54;78275.94;5074007;28;20039;-35
2022/10/02 11:42:04;;;;;;;10.80;2.10;;;;;;;-143.48;52.76;78204.53;5074348;28;20030;-35
2022/10/02 11:45:06;;;;;;;12.70;2.45;;;;;;;-143.48;53.23;78147.03;5073708;28;20118;-35
2022/10/02 11:47:47;;;;;;;13.20;2.23;;;;;;;-143.48;51.99;78133.13;5073994;28;20422;-35
2022/10/02 11:50:47;;;;;;;12.15;2.15;;;;;;;-143.48;52.82;78127.19;5073721;28;20043;-35
2022/10/02 11:53:24;;;;;;;15.82;2.55;;;;;;;-143.48;50.39;78160.91;5073866;28;20082;-35
2022/10/02 11:56:21;;;;;;;13.98;3.17;;;;;;;-143.48;49.90;78143.06;5073682;28;20190;-34
2022/10/02 11:59:02;;;;;;;14.07;2.60;;;;;;;-143.48;50.53;78166.84;5073927;28;20044;-34
2022/10/02 12:01:44;;;;;;;13.65;2.80;;;;;;;-143.48;49.46;78123.22;5073620;28;20152;-34
2022/10/02 12:04:24;;;;;;;13.73;2.57;;;;;;;-143.48;49.96;78055.81;5073497;28;20024;-34
2022/10/02 12:07:03;;;;;;;10.95;2.28;;;;;;;-143.48;49.33;78069.69;5074203;28;20039;-34
2022/10/02 12:09:31;;;;;;;16.98;2.42;;;;;;;-143.48;50.37;78131.16;5073497;28;20031;-35
2022/10/02 12:12:35;;;;;;;9.23;2.13;;;;;;;-143.48;48.75;78109.34;5073861;28;20038;-34
2022/10/02 12:15:22;;;;;;;12.52;3.10;;;;;;;-143.48;44.08;77954.66;5073650;28;20108;-34
2022/10/02 12:18:20;;;;;;;14.32;2.70;;;;;;;-143.48;41.19;77661.19;5073732;28;20111;-34